Nicktown, Pennsylvania
Current Conditions -  °F | °C
As of 7:15 AM on Thursday 18 Dec 2014 (Local Time) from KIDI Reporting Station
Overcast Overcast  
Wind Chill: 18°   Ceiling: 1700
Heat Index: 28°   Visibility: 10mi
Dew Point: 23°   Wind: 12mph
Humidity: 80%   Direction: 290°WNW
Pressure: 30.17"   Gusts: 18mph
Location:  40.61°N, 78.8°W
Report Text: KIDI 181215Z AUTO 29010G16KT 10SM OVC017 M02/M05 A3017 RMK A01
Loading
Personal Weather Stations






























Interactive Weather Map New forecast layout! Learn more

10-Day Weather Forecast

Advertisements
Track Severe Weather on mobile